createdAt,value
2019-05-22T00:02:37.461Z,23.43
2019-05-22T00:05:24.676Z,22.03
2019-05-22T00:07:57.922Z,25.55
2019-05-22T00:10:28.975Z,21.40
2019-05-22T00:12:59.564Z,22.90
2019-05-22T00:15:29.966Z,23.87
2019-05-22T00:18:01.177Z,21.37
2019-05-22T00:20:31.066Z,21.80
2019-05-22T00:23:04.022Z,24.30
2019-05-22T00:25:35.057Z,23.87
2019-05-22T00:28:04.695Z,25.30
2019-05-22T00:30:35.707Z,23.80
2019-05-22T00:33:05.774Z,23.83
2019-05-22T00:35:36.879Z,27.10
2019-05-22T00:38:07.089Z,26.57
2019-05-22T00:40:42.252Z,23.77
2019-05-22T00:43:14.465Z,24.90
2019-05-22T00:45:46.091Z,23.33
2019-05-22T00:48:18.619Z,25.20
2019-05-22T00:51:00.652Z,22.57
2019-05-22T00:53:45.017Z,22.80
2019-05-22T00:56:34.415Z,25.97
2019-05-22T00:59:13.747Z,20.80
2019-05-22T01:01:48.143Z,19.57
2019-05-22T01:04:20.155Z,20.20
2019-05-22T01:06:51.026Z,19.93
2019-05-22T01:09:31.639Z,20.43
2019-05-22T01:12:02.872Z,23.07
2019-05-22T01:14:42.684Z,23.13
2019-05-22T01:17:06.394Z,22.53
2019-05-22T01:19:35.222Z,23.07
2019-05-22T01:22:06.344Z,21.43
2019-05-22T01:24:37.809Z,19.17
2019-05-22T01:27:08.984Z,19.10
2019-05-22T01:29:38.905Z,20.45
2019-05-22T01:32:18.362Z,20.50
2019-05-22T01:34:47.476Z,23.30
2019-05-22T01:37:16.941Z,24.73
2019-05-22T01:40:00.526Z,26.40
2019-05-22T01:42:39.185Z,25.70
2019-05-22T01:45:11.450Z,28.55
2019-05-22T01:47:48.519Z,32.73
2019-05-22T01:50:26.751Z,33.65
2019-05-22T01:52:57.941Z,28.47
2019-05-22T01:55:27.756Z,28.30
2019-05-22T01:57:57.284Z,28.30
2019-05-22T02:00:28.115Z,32.00
2019-05-22T02:02:57.602Z,31.57
2019-05-22T02:05:26.383Z,35.50
2019-05-22T02:07:55.527Z,35.87
2019-05-22T02:10:30.012Z,39.70
2019-05-22T02:13:02.962Z,38.87
2019-05-22T02:15:32.537Z,39.98
2019-05-22T02:18:06.015Z,39.43
2019-05-22T02:20:35.381Z,42.10
2019-05-22T02:23:05.806Z,42.33
2019-05-22T02:25:35.998Z,38.88
2019-05-22T02:28:06.536Z,38.23
2019-05-22T02:30:38.096Z,41.80
2019-05-22T02:33:08.888Z,41.60
2019-05-22T02:35:39.398Z,39.87
2019-05-22T02:38:09.906Z,41.87
2019-05-22T02:40:41.713Z,40.90
2019-05-22T02:43:11.844Z,42.40
2019-05-22T02:45:41.563Z,35.93
2019-05-22T02:48:11.796Z,39.03
2019-05-22T02:50:42.516Z,34.25
2019-05-22T02:53:13.763Z,36.77
2019-05-22T02:55:42.958Z,35.47
2019-05-22T02:58:12.937Z,35.13
2019-05-22T03:01:01.343Z,27.10
2019-05-22T03:03:31.924Z,30.67
2019-05-22T03:06:04.210Z,25.32
2019-05-22T03:09:18.384Z,26.07
2019-05-22T03:12:06.035Z,28.60
2019-05-22T03:14:35.681Z,28.67
2019-05-22T03:17:09.603Z,28.73
2019-05-22T03:19:42.722Z,27.47
2019-05-22T03:22:24.959Z,27.47
2019-05-22T03:24:55.209Z,27.63
2019-05-22T03:27:36.404Z,31.37
2019-05-22T03:30:06.437Z,26.40
2019-05-22T03:32:43.117Z,28.40
2019-05-22T03:35:07.575Z,30.07
2019-05-22T03:37:37.693Z,31.10
2019-05-22T03:40:08.614Z,33.07
2019-05-22T03:42:37.632Z,33.33
2019-05-22T03:45:09.731Z,35.73
2019-05-22T03:47:40.487Z,35.15
2019-05-22T03:50:10.560Z,34.00
2019-05-22T03:52:40.073Z,35.03
2019-05-22T03:55:12.719Z,36.13
2019-05-22T03:57:42.371Z,35.75
2019-05-22T04:00:15.641Z,37.63
2019-05-22T04:02:46.424Z,34.13
2019-05-22T04:05:16.818Z,31.40
2019-05-22T04:07:47.981Z,32.60
2019-05-22T04:10:18.941Z,33.63
2019-05-22T04:12:50.028Z,29.57
2019-05-22T04:15:20.577Z,30.50
2019-05-22T04:17:49.671Z,34.00
2019-05-22T04:20:20.408Z,37.83
2019-05-22T04:22:56.245Z,34.95
2019-05-22T04:25:26.289Z,32.13
2019-05-22T04:27:55.697Z,31.85
2019-05-22T04:30:25.728Z,33.20
2019-05-22T04:32:55.029Z,31.00
2019-05-22T04:35:24.341Z,28.97
2019-05-22T04:37:53.374Z,31.70
2019-05-22T04:40:51.224Z,29.27
2019-05-22T04:43:24.980Z,30.12
2019-05-22T04:45:55.578Z,27.93
2019-05-22T04:48:27.299Z,24.93
2019-05-22T04:50:58.944Z,25.13
2019-05-22T04:53:29.701Z,25.10
2019-05-22T04:55:59.371Z,25.23
2019-05-22T04:58:31.142Z,24.90
2019-05-22T05:01:00.239Z,24.97
2019-05-22T05:03:29.289Z,25.92
2019-05-22T05:05:59.907Z,24.17
2019-05-22T05:08:29.924Z,25.30
2019-05-22T05:11:02.372Z,24.07
2019-05-22T05:13:31.788Z,23.87
2019-05-22T05:16:00.708Z,22.13
2019-05-22T05:18:30.522Z,24.23
2019-05-22T05:20:59.346Z,26.10
2019-05-22T05:23:29.067Z,26.23
2019-05-22T05:25:57.958Z,24.37
2019-05-22T05:28:28.083Z,26.20
2019-05-22T05:30:56.911Z,25.23
2019-05-22T05:33:26.794Z,25.70
2019-05-22T05:35:57.485Z,22.07
2019-05-22T05:38:34.707Z,22.90
2019-05-22T05:41:03.926Z,22.70
2019-05-22T05:43:33.272Z,21.97
2019-05-22T05:46:02.155Z,22.00
2019-05-22T05:48:33.089Z,19.23
2019-05-22T05:51:40.379Z,19.73
2019-05-22T05:54:14.931Z,17.92
2019-05-22T05:56:48.866Z,17.93
2019-05-22T05:59:20.325Z,16.50
2019-05-22T06:01:53.147Z,16.43
2019-05-22T06:04:35.008Z,16.17
2019-05-22T06:07:18.813Z,13.47
2019-05-22T06:09:51.489Z,15.50
2019-05-22T06:12:20.649Z,12.90
2019-05-22T06:14:50.524Z,11.47
2019-05-22T06:18:15.977Z,12.07
2019-05-22T06:21:01.221Z,14.90
2019-05-22T06:23:55.498Z,15.13
2019-05-22T06:26:57.730Z,16.65
2019-05-22T06:29:37.375Z,15.72
2019-05-22T06:32:48.672Z,17.80
2019-05-22T06:35:17.795Z,21.43
2019-05-22T06:38:04.275Z,21.73
2019-05-22T06:40:33.664Z,21.50
2019-05-22T06:43:52.636Z,23.00
2019-05-22T06:46:44.591Z,18.77
2019-05-22T06:49:45.312Z,18.80
2019-05-22T06:52:14.990Z,17.60
2019-05-22T06:54:44.315Z,18.77
2019-05-22T06:57:18.149Z,17.97
2019-05-22T06:59:48.955Z,19.70
2019-05-22T07:02:18.900Z,16.53
2019-05-22T07:04:48.105Z,14.80
2019-05-22T07:07:18.217Z,18.77
2019-05-22T07:09:47.410Z,17.03
2019-05-22T07:12:19.660Z,21.43
2019-05-22T07:15:25.370Z,15.13
2019-05-22T07:17:55.496Z,18.13
2019-05-22T07:20:27.278Z,19.27
2019-05-22T07:22:58.030Z,18.43
2019-05-22T07:25:27.935Z,18.33
2019-05-22T07:27:57.463Z,16.03
2019-05-22T07:30:26.758Z,16.70
2019-05-22T07:32:56.388Z,19.83
2019-05-22T07:35:44.094Z,19.35
2019-05-22T07:37:57.925Z,20.17
2019-05-22T07:40:27.387Z,17.92
2019-05-22T07:42:56.528Z,16.07
2019-05-22T07:45:29.247Z,16.87
2019-05-22T07:47:59.936Z,20.10
2019-05-22T07:50:33.738Z,17.95
2019-05-22T07:53:03.291Z,17.00
2019-05-22T07:55:33.855Z,15.65
2019-05-22T07:58:10.094Z,17.27
2019-05-22T08:00:42.542Z,17.27
2019-05-22T08:03:12.823Z,18.07
2019-05-22T08:05:49.840Z,17.52
2019-05-22T08:08:19.723Z,14.97
2019-05-22T08:10:49.038Z,14.60
2019-05-22T08:13:18.263Z,13.87
2019-05-22T08:15:48.230Z,15.30
2019-05-22T08:18:18.107Z,13.18
2019-05-22T08:20:46.972Z,13.03
2019-05-22T08:23:16.343Z,15.37
2019-05-22T08:25:45.792Z,16.27
2019-05-22T08:28:16.666Z,18.40
2019-05-22T08:30:47.785Z,17.37
2019-05-22T08:33:17.105Z,20.30
2019-05-22T08:35:46.903Z,16.80
2019-05-22T08:38:16.025Z,16.57
2019-05-22T08:40:46.899Z,18.60
2019-05-22T08:43:16.021Z,15.93
2019-05-22T08:45:46.122Z,18.53
2019-05-22T08:48:16.683Z,19.53
2019-05-22T08:50:46.285Z,20.47
2019-05-22T08:53:16.417Z,22.05
2019-05-22T08:55:45.620Z,19.93
2019-05-22T08:58:15.464Z,19.37
2019-05-22T09:00:45.193Z,19.97
2019-05-22T09:03:15.582Z,19.87
2019-05-22T09:05:44.917Z,16.57
2019-05-22T09:08:13.796Z,16.43
2019-05-22T09:10:42.878Z,15.37
2019-05-22T09:13:12.291Z,17.20
2019-05-22T09:15:42.343Z,15.68
2019-05-22T09:18:11.998Z,16.33
2019-05-22T09:20:49.425Z,18.03
2019-05-22T09:23:13.032Z,17.80
2019-05-22T09:25:42.333Z,17.20
2019-05-22T09:28:11.248Z,15.67
2019-05-22T09:30:40.009Z,16.63
2019-05-22T09:33:11.018Z,15.37
2019-05-22T09:35:40.681Z,16.60
2019-05-22T09:38:09.851Z,18.52
2019-05-22T09:40:39.345Z,17.57
2019-05-22T09:43:08.107Z,15.60
2019-05-22T09:45:37.704Z,19.90
2019-05-22T09:48:07.774Z,19.80
2019-05-22T09:50:37.266Z,18.43
2019-05-22T09:53:07.892Z,20.23
2019-05-22T09:55:37.579Z,19.13
2019-05-22T09:58:08.796Z,19.12
2019-05-22T10:00:38.888Z,20.83
2019-05-22T10:03:08.613Z,19.77
2019-05-22T10:05:37.535Z,23.97
2019-05-22T10:08:07.589Z,18.17
2019-05-22T10:10:37.098Z,20.03
2019-05-22T10:13:06.404Z,23.90
2019-05-22T10:15:35.632Z,21.87
2019-05-22T10:18:05.006Z,23.80
2019-05-22T10:20:34.402Z,19.48
2019-05-22T10:23:15.290Z,19.53
2019-05-22T10:25:37.209Z,17.98
2019-05-22T10:28:07.067Z,21.77
2019-05-22T10:30:36.122Z,17.60
2019-05-22T10:33:05.811Z,18.67
2019-05-22T10:35:37.151Z,16.77
2019-05-22T10:38:07.177Z,18.37
2019-05-22T10:40:36.055Z,17.50
2019-05-22T10:43:05.547Z,18.93
2019-05-22T10:45:35.351Z,18.60
2019-05-22T10:48:04.927Z,17.73
2019-05-22T10:50:34.717Z,17.80
2019-05-22T10:53:03.818Z,15.43
2019-05-22T10:55:33.578Z,16.60
2019-05-22T10:58:03.115Z,17.33
2019-05-22T11:00:32.255Z,15.07
2019-05-22T11:03:01.250Z,15.47
2019-05-22T11:05:30.836Z,17.73
2019-05-22T11:08:01.674Z,13.40
2019-05-22T11:10:30.543Z,17.17
2019-05-22T11:13:00.485Z,17.57
2019-05-22T11:15:29.805Z,17.87
2019-05-22T11:17:59.080Z,15.30
2019-05-22T11:20:28.406Z,15.20
2019-05-22T11:22:58.025Z,14.73
2019-05-22T11:25:27.182Z,14.58
2019-05-22T11:27:56.003Z,14.40
2019-05-22T11:30:25.413Z,18.82
2019-05-22T11:32:54.498Z,14.67
2019-05-22T11:35:23.713Z,14.37
2019-05-22T11:37:52.636Z,16.03
2019-05-22T11:40:23.504Z,16.83
2019-05-22T11:42:53.409Z,15.30
2019-05-22T11:45:23.524Z,16.33
2019-05-22T11:47:53.554Z,16.30
2019-05-22T11:50:23.497Z,14.27
2019-05-22T11:52:53.185Z,16.57
2019-05-22T11:55:22.952Z,14.77
2019-05-22T11:57:53.645Z,15.32
2019-05-22T12:00:23.481Z,14.93
2019-05-22T12:02:54.169Z,14.15
2019-05-22T12:05:24.409Z,14.87
2019-05-22T12:07:54.092Z,15.53
2019-05-22T12:10:25.258Z,15.93
2019-05-22T12:12:56.072Z,15.95
2019-05-22T12:15:29.344Z,14.13
2019-05-22T12:17:58.776Z,16.57
2019-05-22T12:20:29.289Z,17.33
2019-05-22T12:22:58.447Z,16.10
2019-05-22T12:25:27.721Z,16.00
2019-05-22T12:27:57.932Z,15.20
2019-05-22T12:30:27.934Z,15.50
2019-05-22T12:32:57.352Z,13.77
2019-05-22T12:35:27.556Z,15.33
2019-05-22T12:37:58.343Z,15.17
2019-05-22T12:40:31.942Z,15.72
2019-05-22T12:43:01.949Z,14.80
2019-05-22T12:45:32.093Z,13.58
2019-05-22T12:48:02.024Z,14.67
2019-05-22T12:50:32.060Z,13.60
2019-05-22T12:53:05.152Z,14.70
2019-05-22T12:55:34.468Z,13.15
2019-05-22T12:58:04.977Z,14.57
2019-05-22T13:00:34.611Z,15.78
2019-05-22T13:03:04.664Z,14.77
2019-05-22T13:05:36.895Z,14.53
2019-05-22T13:08:06.908Z,15.67
2019-05-22T13:10:36.657Z,12.77
2019-05-22T13:13:05.869Z,13.77
2019-05-22T13:15:38.587Z,14.20
2019-05-22T13:18:10.488Z,14.13
2019-05-22T13:20:46.421Z,13.70
2019-05-22T13:23:17.534Z,13.60
2019-05-22T13:25:46.995Z,13.87
2019-05-22T13:28:18.240Z,12.90
2019-05-22T13:30:52.816Z,13.80
2019-05-22T13:33:26.106Z,12.10
2019-05-22T13:35:57.335Z,11.43
2019-05-22T13:38:26.841Z,11.67
2019-05-22T13:40:56.766Z,9.98
2019-05-22T13:43:27.523Z,10.63
2019-05-22T13:45:56.887Z,11.73
2019-05-22T13:48:27.647Z,12.67
2019-05-22T13:50:59.156Z,11.10
2019-05-22T13:53:29.349Z,10.13
2019-05-22T13:55:59.128Z,10.97
2019-05-22T13:58:29.062Z,10.23
2019-05-22T14:00:58.550Z,10.30
2019-05-22T14:03:27.929Z,10.80
2019-05-22T14:05:57.313Z,9.03
2019-05-22T14:08:26.688Z,11.05
2019-05-22T14:10:56.646Z,12.37
2019-05-22T14:13:26.961Z,14.23
2019-05-22T14:15:57.460Z,9.47
2019-05-22T14:18:27.530Z,10.67
2019-05-22T14:20:56.490Z,10.10
2019-05-22T14:23:25.319Z,9.93
2019-05-22T14:25:54.589Z,10.00
2019-05-22T14:28:25.305Z,9.47
2019-05-22T14:30:54.507Z,9.43
2019-05-22T14:33:28.068Z,11.07
2019-05-22T14:35:57.047Z,8.90
2019-05-22T14:38:27.012Z,11.20
2019-05-22T14:40:56.724Z,8.27
2019-05-22T14:43:26.021Z,9.93
2019-05-22T14:45:55.680Z,8.80
2019-05-22T14:48:24.866Z,10.23
2019-05-22T14:50:54.851Z,8.27
2019-05-22T14:53:23.957Z,8.90
2019-05-22T14:55:53.744Z,8.37
2019-05-22T14:58:23.337Z,8.20
2019-05-22T15:00:53.761Z,8.67
2019-05-22T15:03:23.972Z,8.43
2019-05-22T15:05:54.094Z,9.67
2019-05-22T15:08:23.354Z,10.28
2019-05-22T15:10:52.950Z,10.90
2019-05-22T15:13:23.073Z,10.58
2019-05-22T15:15:52.593Z,9.57
2019-05-22T15:18:21.440Z,10.47
2019-05-22T15:20:56.467Z,49.03
2019-05-22T15:23:26.787Z,18.20
2019-05-22T15:25:55.742Z,18.87
2019-05-22T15:28:27.147Z,9.20
2019-05-22T15:30:56.578Z,10.93
2019-05-22T15:33:25.810Z,10.03
2019-05-22T15:35:54.683Z,10.73
2019-05-22T15:38:23.850Z,8.70
2019-05-22T15:40:53.691Z,9.80
2019-05-22T15:43:24.980Z,17.77
2019-05-22T15:45:55.377Z,20.27
2019-05-22T15:48:29.907Z,11.87
2019-05-22T15:51:03.132Z,11.80
2019-05-22T15:53:33.200Z,12.47
2019-05-22T15:56:04.055Z,8.00
2019-05-22T15:58:34.945Z,8.90
2019-05-22T16:01:06.151Z,8.83
2019-05-22T16:03:36.545Z,9.10
2019-05-22T16:06:07.519Z,27.47
2019-05-22T16:08:37.393Z,11.33
2019-05-22T16:11:09.255Z,8.90
2019-05-22T16:13:38.625Z,8.57
2019-05-22T16:16:09.468Z,8.10
2019-05-22T16:18:38.960Z,7.20
2019-05-22T16:21:09.795Z,8.00
2019-05-22T16:23:39.525Z,8.43
2019-05-22T16:26:09.847Z,9.63
2019-05-22T16:28:40.749Z,8.83
2019-05-22T16:31:12.353Z,9.13
2019-05-22T16:33:43.108Z,8.63
2019-05-22T16:36:13.162Z,9.00
2019-05-22T16:38:43.708Z,8.77
2019-05-22T16:41:13.507Z,8.80
2019-05-22T16:43:49.638Z,11.57
2019-05-22T16:46:17.918Z,10.97
2019-05-22T16:48:48.611Z,8.07
2019-05-22T16:51:18.211Z,8.33
2019-05-22T16:53:54.454Z,8.00
2019-05-22T16:56:25.357Z,7.20
2019-05-22T16:58:54.571Z,6.60
2019-05-22T17:01:26.376Z,8.63
2019-05-22T17:03:58.565Z,6.73
2019-05-22T17:06:28.064Z,11.30
2019-05-22T17:08:58.988Z,9.53
2019-05-22T17:11:28.628Z,8.53
2019-05-22T17:14:01.550Z,7.78
2019-05-22T17:16:36.852Z,8.17
2019-05-22T17:19:23.795Z,8.63
2019-05-22T17:21:40.968Z,10.27
2019-05-22T17:24:11.419Z,9.65
2019-05-22T17:29:31.945Z,6.37
2019-05-22T17:32:05.018Z,7.40
2019-05-22T17:34:35.360Z,9.23
2019-05-22T17:37:09.495Z,6.40
2019-05-22T17:39:41.515Z,8.03
2019-05-22T17:42:14.713Z,7.35
2019-05-22T17:44:45.817Z,7.10
2019-05-22T17:47:17.855Z,6.53
2019-05-22T17:49:49.024Z,6.50
2019-05-22T17:52:20.902Z,6.90
2019-05-22T17:54:51.894Z,7.60
2019-05-22T17:57:23.024Z,7.17
2019-05-22T17:59:53.467Z,8.43
2019-05-22T18:02:24.778Z,6.77
2019-05-22T18:04:53.572Z,5.90
2019-05-22T18:07:22.648Z,7.23
2019-05-22T18:09:51.808Z,6.97
2019-05-22T18:12:22.320Z,6.77
2019-05-22T18:14:51.554Z,7.22
2019-05-22T18:17:20.358Z,5.90
2019-05-22T18:19:49.310Z,6.75
2019-05-22T18:22:18.357Z,6.87
2019-05-22T18:24:47.298Z,5.95
2019-05-22T18:27:16.129Z,5.73
2019-05-22T18:29:47.073Z,6.40
2019-05-22T18:32:16.084Z,19.30
2019-05-22T18:34:44.909Z,7.67
2019-05-22T18:37:14.055Z,8.27
2019-05-22T18:39:45.317Z,6.63
2019-05-22T18:42:14.381Z,5.97
2019-05-22T18:44:45.302Z,6.50
2019-05-22T18:47:16.261Z,7.53
2019-05-22T18:49:45.546Z,8.40
2019-05-22T18:52:14.311Z,6.10
2019-05-22T18:54:43.096Z,6.83
2019-05-22T18:57:11.937Z,9.43
2019-05-22T18:59:40.679Z,7.13
2019-05-22T19:02:10.893Z,6.80
2019-05-22T19:04:39.748Z,7.37
2019-05-22T19:07:08.557Z,7.27
2019-05-22T19:09:37.445Z,6.83
2019-05-22T19:12:06.336Z,7.10
2019-05-22T19:14:35.806Z,8.05
2019-05-22T19:17:05.754Z,7.43
2019-05-22T19:19:35.817Z,7.87
2019-05-22T19:22:04.978Z,11.60
2019-05-22T19:24:33.940Z,7.20
2019-05-22T19:27:03.059Z,7.90
2019-05-22T19:29:32.331Z,8.03
2019-05-22T19:32:01.274Z,7.83
2019-05-22T19:34:30.685Z,8.53
2019-05-22T19:36:59.553Z,7.40
2019-05-22T19:39:29.102Z,7.47
2019-05-22T19:42:03.752Z,8.15
2019-05-22T19:44:29.203Z,11.33
2019-05-22T19:46:58.027Z,8.10
2019-05-22T19:49:28.028Z,7.60
2019-05-22T19:51:57.679Z,8.83
2019-05-22T19:54:26.579Z,7.63
2019-05-22T19:56:56.733Z,9.20
2019-05-22T19:59:26.544Z,7.77
2019-05-22T20:01:56.135Z,8.13
2019-05-22T20:04:25.610Z,8.77
2019-05-22T20:06:54.985Z,10.37
2019-05-22T20:09:25.412Z,10.70
2019-05-22T20:11:54.780Z,8.83
2019-05-22T20:14:23.953Z,8.38
2019-05-22T20:16:53.777Z,9.10
2019-05-22T20:19:22.574Z,8.80
2019-05-22T20:21:53.111Z,8.33
2019-05-22T20:24:22.306Z,8.80
2019-05-22T20:26:51.505Z,8.60
2019-05-22T20:29:21.382Z,8.80
2019-05-22T20:31:50.710Z,10.37
2019-05-22T20:34:22.987Z,9.30
2019-05-22T20:36:51.978Z,9.43
2019-05-22T20:39:21.500Z,10.87
2019-05-22T20:41:51.850Z,9.13
2019-05-22T20:44:22.826Z,9.20
2019-05-22T20:46:52.788Z,10.30
2019-05-22T20:49:22.476Z,9.10
2019-05-22T20:51:52.494Z,9.25
2019-05-22T20:54:22.787Z,10.10
2019-05-22T20:56:54.007Z,10.05
2019-05-22T20:59:24.355Z,10.20
2019-05-22T21:01:55.478Z,9.83
2019-05-22T21:04:27.201Z,12.87
2019-05-22T21:07:01.686Z,9.38
2019-05-22T21:09:32.593Z,10.67
2019-05-22T21:12:03.360Z,10.87
2019-05-22T21:14:32.688Z,10.77
2019-05-22T21:17:02.413Z,11.95
2019-05-22T21:19:32.588Z,13.90
2019-05-22T21:22:02.912Z,11.77
2019-05-22T21:24:32.259Z,11.60
2019-05-22T21:27:04.493Z,11.50
2019-05-22T21:29:33.747Z,11.20
2019-05-22T21:32:06.132Z,11.83
2019-05-22T21:34:35.315Z,10.83
2019-05-22T21:37:06.460Z,11.80
2019-05-22T21:39:37.485Z,11.47
2019-05-22T21:42:08.070Z,11.93
2019-05-22T21:44:37.187Z,10.53
2019-05-22T21:47:07.496Z,11.17
2019-05-22T21:49:38.803Z,10.23
2019-05-22T21:52:08.349Z,10.98
2019-05-22T21:54:39.374Z,13.48
2019-05-22T21:57:10.391Z,10.47
2019-05-22T21:59:40.513Z,11.50
2019-05-22T22:05:07.830Z,11.13
2019-05-22T22:07:37.098Z,11.83
2019-05-22T22:10:07.107Z,11.07
2019-05-22T22:12:37.311Z,11.33
2019-05-22T22:15:07.907Z,13.30
2019-05-22T22:17:39.062Z,11.40
2019-05-22T22:20:08.797Z,11.93
2019-05-22T22:22:38.467Z,12.90
2019-05-22T22:25:08.397Z,13.95
2019-05-22T22:27:38.527Z,11.60
2019-05-22T22:30:15.042Z,14.03
2019-05-22T22:32:45.523Z,11.60
2019-05-22T22:35:16.355Z,16.57
2019-05-22T22:37:46.485Z,13.37
2019-05-22T22:40:18.496Z,15.43
2019-05-22T22:42:49.046Z,12.73
2019-05-22T22:45:27.232Z,11.45
2019-05-22T22:47:56.259Z,12.30
2019-05-22T22:50:25.994Z,11.80
2019-05-22T22:52:55.468Z,13.00
2019-05-22T22:55:26.865Z,12.35
2019-05-22T22:57:56.575Z,11.33
2019-05-22T23:00:34.150Z,13.30
2019-05-22T23:03:03.136Z,11.70
2019-05-22T23:05:35.472Z,12.53
2019-05-22T23:08:05.388Z,12.73
2019-05-22T23:10:34.199Z,15.43
2019-05-22T23:13:05.361Z,13.17
2019-05-22T23:15:35.363Z,14.47
2019-05-22T23:18:06.036Z,13.93
2019-05-22T23:20:33.953Z,13.90
2019-05-22T23:23:01.518Z,11.63
2019-05-22T23:25:32.272Z,11.40
2019-05-22T23:28:02.621Z,11.97
2019-05-22T23:30:32.289Z,13.43
2019-05-22T23:33:03.224Z,12.43
2019-05-22T23:35:32.054Z,12.00
2019-05-22T23:38:02.020Z,14.27
2019-05-22T23:40:34.221Z,13.23
2019-05-22T23:43:04.783Z,12.40
2019-05-22T23:45:35.346Z,13.00
2019-05-22T23:48:11.897Z,12.37
2019-05-22T23:50:41.741Z,13.67
2019-05-22T23:53:12.168Z,13.20
2019-05-22T23:55:43.199Z,12.83
2019-05-22T23:58:14.131Z,14.60
